createdAt,value
2022-08-19T00:00:08.057Z,100319.40
2022-08-19T00:03:00.119Z,100317.02
2022-08-19T00:05:32.310Z,100316.34
2022-08-19T00:08:05.665Z,100314.85
2022-08-19T00:10:38.614Z,100315.97
2022-08-19T00:13:13.125Z,100320.38
2022-08-19T00:15:46.093Z,100327.35
2022-08-19T00:18:21.425Z,100323.41
2022-08-19T00:20:52.161Z,100328.27
2022-08-19T00:23:25.824Z,100329.02
2022-08-19T00:26:02.007Z,100337.20
2022-08-19T00:28:36.123Z,100336.30
2022-08-19T00:31:12.460Z,100337.79
2022-08-19T00:33:47.950Z,100335.27
2022-08-19T00:36:19.899Z,100336.86
2022-08-19T00:38:56.425Z,100339.55
2022-08-19T00:41:27.644Z,100342.23
2022-08-19T00:44:08.128Z,100344.96
2022-08-19T00:46:41.757Z,100340.23
2022-08-19T00:49:16.706Z,100339.06
2022-08-19T00:51:48.145Z,100341.42
2022-08-19T00:54:20.365Z,100338.52
2022-08-19T00:57:04.116Z,100338.42
2022-08-19T01:00:01.048Z,100340.78
2022-08-19T01:02:35.736Z,100342.11
2022-08-19T01:05:11.488Z,100342.11
2022-08-19T01:07:42.866Z,100339.60
2022-08-19T01:10:17.194Z,100341.32
2022-08-19T01:12:48.215Z,100340.91
2022-08-19T01:15:22.408Z,100340.84
2022-08-19T01:17:57.071Z,100340.58
2022-08-19T01:20:36.389Z,100341.44
2022-08-19T01:23:08.359Z,100336.79
2022-08-19T01:25:50.067Z,100336.45
2022-08-19T01:28:39.749Z,100338.30
2022-08-19T01:31:27.265Z,100341.00
2022-08-19T01:34:02.117Z,100339.13
2022-08-19T01:36:34.058Z,100338.39
2022-08-19T01:39:10.529Z,100337.61
2022-08-19T01:41:41.368Z,100339.87
2022-08-19T01:44:18.728Z,100345.04
2022-08-19T01:46:56.709Z,100351.55
2022-08-19T01:49:27.792Z,100355.04
2022-08-19T01:51:59.667Z,100355.80
2022-08-19T01:54:40.400Z,100358.99
2022-08-19T01:57:12.310Z,100358.75
2022-08-19T01:59:45.307Z,100360.30
2022-08-19T02:02:19.253Z,100362.27
2022-08-19T02:04:52.494Z,100361.77
2022-08-19T02:07:29.556Z,100367.34
2022-08-19T02:10:00.514Z,100367.77
2022-08-19T02:12:36.859Z,100369.80
2022-08-19T02:15:09.027Z,100365.39
2022-08-19T02:17:46.052Z,100361.78
2022-08-19T02:20:17.213Z,100360.67
2022-08-19T02:22:50.880Z,100365.31
2022-08-19T02:25:25.628Z,100366.23
2022-08-19T02:27:56.352Z,100366.10
2022-08-19T02:30:31.333Z,100363.42
2022-08-19T02:33:09.629Z,100364.66
2022-08-19T02:35:40.629Z,100361.56
2022-08-19T02:38:36.210Z,100360.94
2022-08-19T02:41:11.112Z,100363.69
2022-08-19T02:44:26.497Z,100364.02
2022-08-19T02:46:44.521Z,100369.70
2022-08-19T02:49:17.582Z,100373.36
2022-08-19T02:51:48.926Z,100372.35
2022-08-19T02:54:24.210Z,100372.84
2022-08-19T02:56:56.190Z,100376.38
2022-08-19T02:59:27.101Z,100377.84
2022-08-19T03:02:01.073Z,100378.63
2022-08-19T03:04:31.899Z,100374.80
2022-08-19T03:07:10.924Z,100376.21
2022-08-19T03:09:43.593Z,100377.50
2022-08-19T03:12:14.509Z,100374.83
2022-08-19T03:14:47.728Z,100373.65
2022-08-19T03:17:24.392Z,100373.44
2022-08-19T03:20:00.911Z,100374.10
2022-08-19T03:22:34.180Z,100376.01
2022-08-19T03:25:07.171Z,100378.32
2022-08-19T03:27:40.845Z,100381.38
2022-08-19T03:30:15.128Z,100383.10
2022-08-19T03:32:57.144Z,100378.48
2022-08-19T03:35:28.409Z,100381.48
2022-08-19T03:37:59.300Z,100384.73
2022-08-19T03:40:31.953Z,100387.73
2022-08-19T03:43:03.332Z,100391.91
2022-08-19T03:45:42.084Z,100400.17
2022-08-19T03:48:13.117Z,100399.92
2022-08-19T03:50:51.171Z,100400.78
2022-08-19T03:53:22.902Z,100403.10
2022-08-19T03:55:54.187Z,100407.39
2022-08-19T03:58:28.925Z,100404.75
2022-08-19T04:01:02.070Z,100404.55
2022-08-19T04:03:37.140Z,100407.35
2022-08-19T04:06:18.157Z,100409.92
2022-08-19T04:08:51.555Z,100410.48
2022-08-19T04:11:43.242Z,100410.67
2022-08-19T04:14:20.610Z,100410.95
2022-08-19T04:16:51.603Z,100409.80
2022-08-19T04:19:22.915Z,100408.77
2022-08-19T04:21:54.858Z,100406.77
2022-08-19T04:24:38.283Z,100410.63
2022-08-19T04:27:10.594Z,100414.73
2022-08-19T04:29:42.481Z,100421.75
2022-08-19T04:32:16.963Z,100422.94
2022-08-19T04:35:01.559Z,100420.77
2022-08-19T04:37:42.560Z,100417.17
2022-08-19T04:40:31.294Z,100417.48
2022-08-19T04:43:03.363Z,100412.64
2022-08-19T04:45:43.790Z,100411.89
2022-08-19T04:48:19.793Z,100406.88
2022-08-19T04:51:08.666Z,100413.89
2022-08-19T04:53:41.653Z,100412.63
2022-08-19T04:56:22.700Z,100409.20
2022-08-19T04:58:53.599Z,100410.69
2022-08-19T05:01:37.286Z,100410.80
2022-08-19T05:04:08.745Z,100412.10
2022-08-19T05:06:43.450Z,100418.39
2022-08-19T05:09:16.850Z,100421.02
2022-08-19T05:11:52.526Z,100429.98
2022-08-19T05:14:31.584Z,100431.06
2022-08-19T05:17:26.215Z,100434.10
2022-08-19T05:20:16.587Z,100431.16
2022-08-19T05:22:49.296Z,100425.92
2022-08-19T05:25:32.882Z,100424.16
2022-08-19T05:28:08.635Z,100421.98
2022-08-19T05:30:47.751Z,100419.02
2022-08-19T05:33:23.947Z,100418.09
2022-08-19T05:35:57.756Z,100418.02
2022-08-19T05:38:38.432Z,100415.97
2022-08-19T05:41:11.827Z,100415.52
2022-08-19T05:43:48.474Z,100415.43
2022-08-19T05:46:27.872Z,100416.95
2022-08-19T05:49:15.021Z,100412.57
2022-08-19T05:51:49.223Z,100418.67
2022-08-19T05:54:24.275Z,100416.20
2022-08-19T05:57:04.671Z,100418.50
2022-08-19T05:59:35.568Z,100420.56
2022-08-19T06:02:14.646Z,100418.44
2022-08-19T06:04:57.739Z,100416.69
2022-08-19T06:07:31.664Z,100416.66
2022-08-19T06:10:05.950Z,100417.04
2022-08-19T06:12:40.675Z,100416.41
2022-08-19T06:15:15.972Z,100416.02
2022-08-19T06:17:49.855Z,100419.36
2022-08-19T06:20:52.293Z,100415.52
2022-08-19T06:23:20.519Z,100415.25
2022-08-19T06:25:55.296Z,100417.70
2022-08-19T06:28:28.973Z,100414.05
2022-08-19T06:30:59.849Z,100414.02
2022-08-19T06:33:33.660Z,100415.42
2022-08-19T06:36:07.501Z,100417.14
2022-08-19T06:38:38.441Z,100420.62
2022-08-19T06:41:16.684Z,100419.58
2022-08-19T06:43:50.526Z,100419.42
2022-08-19T06:46:29.970Z,100416.11
2022-08-19T06:49:15.193Z,100418.69
2022-08-19T06:51:54.722Z,100418.11
2022-08-19T06:54:30.794Z,100419.38
2022-08-19T06:57:03.504Z,100414.71
2022-08-19T06:59:35.449Z,100415.37
2022-08-19T07:04:55.261Z,100414.04
2022-08-19T07:07:33.852Z,100411.68
2022-08-19T07:10:07.704Z,100411.67
2022-08-19T07:12:39.265Z,100413.86
2022-08-19T07:15:22.477Z,100411.93
2022-08-19T07:17:57.752Z,100414.34
2022-08-19T07:20:29.714Z,100408.95
2022-08-19T07:23:07.164Z,100408.71
2022-08-19T07:25:52.499Z,100402.53
2022-08-19T07:28:25.175Z,100402.26
2022-08-19T07:31:02.960Z,100400.21
2022-08-19T07:33:37.674Z,100401.13
2022-08-19T07:36:14.464Z,100397.82
2022-08-19T07:38:48.035Z,100397.71
2022-08-19T07:41:29.860Z,100398.42
2022-08-19T07:44:07.292Z,100403.79
2022-08-19T07:46:48.270Z,100403.88
2022-08-19T07:49:27.032Z,100405.64
2022-08-19T07:52:01.259Z,100404.06
2022-08-19T07:54:36.717Z,100402.36
2022-08-19T07:57:13.813Z,100400.02
2022-08-19T07:59:49.933Z,100396.16
2022-08-19T08:02:29.741Z,100396.42
2022-08-19T08:05:18.645Z,100391.57
2022-08-19T08:08:09.039Z,100393.64
2022-08-19T08:10:43.754Z,100392.26
2022-08-19T08:13:31.225Z,100390.21
2022-08-19T08:16:05.475Z,100386.02
2022-08-19T08:19:02.879Z,100389.85
2022-08-19T08:21:45.214Z,100386.95
2022-08-19T08:24:19.680Z,100383.51
2022-08-19T08:26:52.135Z,100383.23
2022-08-19T08:29:35.091Z,100380.27
2022-08-19T08:32:14.231Z,100374.20
2022-08-19T08:34:52.419Z,100373.45
2022-08-19T08:37:25.129Z,100372.87
2022-08-19T08:39:58.944Z,100373.93
2022-08-19T08:42:30.472Z,100372.75
2022-08-19T08:45:07.004Z,100376.84
2022-08-19T08:47:41.966Z,100371.12
2022-08-19T08:50:15.786Z,100365.20
2022-08-19T08:52:48.264Z,100364.63
2022-08-19T08:55:24.535Z,100362.14
2022-08-19T08:58:03.399Z,100361.02
2022-08-19T09:00:44.004Z,100353.29
2022-08-19T09:03:19.219Z,100356.98
2022-08-19T09:05:52.488Z,100358.34
2022-08-19T09:08:28.497Z,100355.78
2022-08-19T09:10:59.574Z,100360.52
2022-08-19T09:13:37.487Z,100360.31
2022-08-19T09:16:09.936Z,100362.25
2022-08-19T09:18:48.235Z,100361.70
2022-08-19T09:21:25.738Z,100361.80
2022-08-19T09:24:04.175Z,100364.52
2022-08-19T09:26:48.267Z,100365.31
2022-08-19T09:29:26.981Z,100362.67
2022-08-19T09:31:59.041Z,100362.36
2022-08-19T09:34:37.848Z,100354.63
2022-08-19T09:37:15.137Z,100350.42
2022-08-19T09:39:46.149Z,100350.38
2022-08-19T09:42:30.357Z,100353.13
2022-08-19T09:45:10.484Z,100347.94
2022-08-19T09:47:41.357Z,100349.13
2022-08-19T09:50:16.426Z,100346.23
2022-08-19T09:52:55.076Z,100349.92
2022-08-19T09:55:32.062Z,100352.42
2022-08-19T09:58:04.364Z,100344.27
2022-08-19T10:00:35.124Z,100344.96
2022-08-19T10:03:05.900Z,100341.08
2022-08-19T10:05:54.659Z,100341.09
2022-08-19T10:08:27.694Z,100341.67
2022-08-19T10:10:58.862Z,100344.28
2022-08-19T10:13:31.077Z,100340.67
2022-08-19T10:16:06.298Z,100340.11
2022-08-19T10:18:38.357Z,100337.98
2022-08-19T10:21:16.129Z,100339.04
2022-08-19T10:23:47.969Z,100333.46
2022-08-19T10:26:20.889Z,100331.95
2022-08-19T10:28:51.737Z,100331.68
2022-08-19T10:32:00.636Z,100325.45
2022-08-19T10:34:27.435Z,100322.84
2022-08-19T10:37:01.130Z,100320.31
2022-08-19T10:39:42.467Z,100317.81
2022-08-19T10:42:14.976Z,100312.82
2022-08-19T10:44:45.845Z,100310.11
2022-08-19T10:47:24.466Z,100312.75
2022-08-19T10:50:14.071Z,100314.88
2022-08-19T10:52:49.790Z,100313.00
2022-08-19T10:55:40.525Z,100312.10
2022-08-19T10:58:16.101Z,100308.06
2022-08-19T11:00:49.547Z,100310.35
2022-08-19T11:03:22.762Z,100305.33
2022-08-19T11:06:03.196Z,100303.60
2022-08-19T11:08:34.648Z,100302.80
2022-08-19T11:11:08.286Z,100296.92
2022-08-19T11:13:39.870Z,100299.39
2022-08-19T11:16:11.967Z,100299.13
2022-08-19T11:18:45.045Z,100297.38
2022-08-19T11:21:18.111Z,100295.66
2022-08-19T11:23:49.498Z,100294.74
2022-08-19T11:26:20.836Z,100293.05
2022-08-19T11:28:54.436Z,100289.76
2022-08-19T11:31:29.035Z,100285.15
2022-08-19T11:34:05.885Z,100280.44
2022-08-19T11:36:37.104Z,100278.40
2022-08-19T11:39:08.365Z,100275.83
2022-08-19T11:41:39.156Z,100276.00
2022-08-19T11:44:09.911Z,100275.45
2022-08-19T11:46:40.764Z,100271.38
2022-08-19T11:49:13.988Z,100270.01
2022-08-19T11:51:45.496Z,100271.73
2022-08-19T11:54:17.054Z,100267.88
2022-08-19T11:56:50.490Z,100272.44
2022-08-19T11:59:21.265Z,100266.51
2022-08-19T12:01:52.092Z,100268.10
2022-08-19T12:04:25.611Z,100271.71
2022-08-19T12:06:56.484Z,100266.58
2022-08-19T12:09:27.206Z,100259.92
2022-08-19T12:12:02.938Z,100253.77
2022-08-19T12:14:33.691Z,100251.02
2022-08-19T12:17:06.075Z,100248.42
2022-08-19T12:19:38.046Z,100245.13
2022-08-19T12:22:09.965Z,100246.07
2022-08-19T12:24:40.673Z,100247.13
2022-08-19T12:27:12.662Z,100242.80
2022-08-19T12:29:43.869Z,100242.80
2022-08-19T12:32:14.601Z,100242.84
2022-08-19T12:34:45.706Z,100237.55
2022-08-19T12:37:17.915Z,100235.91
2022-08-19T12:39:51.797Z,100234.03
2022-08-19T12:42:23.147Z,100230.54
2022-08-19T12:44:55.956Z,100235.54
2022-08-19T12:47:27.595Z,100233.97
2022-08-19T12:49:58.435Z,100237.70
2022-08-19T12:52:29.548Z,100235.92
2022-08-19T12:55:00.203Z,100233.99
2022-08-19T12:57:34.258Z,100232.89
2022-08-19T13:00:08.700Z,100230.66
2022-08-19T13:02:39.469Z,100230.92
2022-08-19T13:05:11.741Z,100225.98
2022-08-19T13:07:42.599Z,100223.17
2022-08-19T13:10:14.099Z,100223.54
2022-08-19T13:12:44.863Z,100217.54
2022-08-19T13:15:17.601Z,100211.08
2022-08-19T13:17:50.022Z,100217.38
2022-08-19T13:20:21.262Z,100212.98
2022-08-19T13:22:52.637Z,100210.42
2022-08-19T13:25:23.988Z,100210.77
2022-08-19T13:27:56.224Z,100210.36
2022-08-19T13:30:44.693Z,100211.70
2022-08-19T13:33:16.678Z,100208.23
2022-08-19T13:35:50.232Z,100212.13
2022-08-19T13:38:22.270Z,100210.54
2022-08-19T13:40:54.918Z,100208.20
2022-08-19T13:43:33.511Z,100202.60
2022-08-19T13:46:12.841Z,100201.89
2022-08-19T13:48:44.045Z,100205.09
2022-08-19T13:51:17.308Z,100207.06
2022-08-19T13:53:53.885Z,100207.20
2022-08-19T13:56:27.839Z,100202.67
2022-08-19T13:59:05.991Z,100200.27
2022-08-19T14:01:41.996Z,100201.62
2022-08-19T14:04:12.815Z,100201.02
2022-08-19T14:06:44.256Z,100196.95
2022-08-19T14:09:15.084Z,100194.50
2022-08-19T14:11:47.797Z,100192.40
2022-08-19T14:14:18.593Z,100196.33
2022-08-19T14:16:53.046Z,100196.55
2022-08-19T14:19:26.016Z,100195.38
2022-08-19T14:22:01.056Z,100193.67
2022-08-19T14:24:31.771Z,100196.08
2022-08-19T14:27:04.412Z,100198.69
2022-08-19T14:29:35.903Z,100197.61
2022-08-19T14:32:07.121Z,100200.04
2022-08-19T14:34:42.376Z,100202.80
2022-08-19T14:37:13.091Z,100202.40
2022-08-19T14:39:45.786Z,100201.98
2022-08-19T14:42:16.748Z,100199.90
2022-08-19T14:44:47.523Z,100200.91
2022-08-19T14:47:18.411Z,100202.14
2022-08-19T14:49:51.193Z,100201.67
2022-08-19T14:52:30.536Z,100197.77
2022-08-19T14:55:01.472Z,100197.73
2022-08-19T14:57:35.496Z,100196.68
2022-08-19T15:00:13.116Z,100198.59
2022-08-19T15:02:45.256Z,100195.61
2022-08-19T15:05:16.022Z,100194.45
2022-08-19T15:07:46.869Z,100189.45
2022-08-19T15:10:20.861Z,100187.42
2022-08-19T15:12:51.959Z,100188.48
2022-08-19T15:15:26.300Z,100188.23
2022-08-19T15:18:03.241Z,100183.65
2022-08-19T15:20:42.071Z,100180.39
2022-08-19T15:23:13.231Z,100178.17
2022-08-19T15:25:47.624Z,100179.57
2022-08-19T15:28:23.787Z,100170.54
2022-08-19T15:30:54.716Z,100170.98
2022-08-19T15:33:27.441Z,100173.52
2022-08-19T15:36:00.316Z,100173.48
2022-08-19T15:38:31.067Z,100174.45
2022-08-19T15:41:21.833Z,100175.69
2022-08-19T15:43:56.160Z,100168.13
2022-08-19T15:46:28.456Z,100172.73
2022-08-19T15:49:02.265Z,100168.70
2022-08-19T15:51:35.663Z,100169.45
2022-08-19T15:54:07.419Z,100172.02
2022-08-19T15:56:57.480Z,100171.62
2022-08-19T15:59:47.095Z,100171.48
2022-08-19T16:02:38.301Z,100170.07
2022-08-19T16:05:28.499Z,100170.08
2022-08-19T16:07:59.371Z,100165.15
2022-08-19T16:10:30.226Z,100166.08
2022-08-19T16:13:00.876Z,100163.24
2022-08-19T16:15:31.990Z,100170.73
2022-08-19T16:18:03.861Z,100169.97
2022-08-19T16:20:35.617Z,100170.87
2022-08-19T16:23:08.765Z,100170.92
2022-08-19T16:25:39.917Z,100170.83
2022-08-19T16:28:10.978Z,100166.84
2022-08-19T16:30:43.073Z,100169.47
2022-08-19T16:33:23.169Z,100164.45
2022-08-19T16:36:00.053Z,100164.95
2022-08-19T16:38:31.458Z,100166.61
2022-08-19T16:41:02.466Z,100167.76
2022-08-19T16:43:33.392Z,100165.73
2022-08-19T16:46:04.058Z,100163.87
2022-08-19T16:48:34.769Z,100167.16
2022-08-19T16:51:09.502Z,100167.10
2022-08-19T16:53:41.351Z,100169.64
2022-08-19T16:56:12.920Z,100171.42
2022-08-19T16:58:44.513Z,100176.80
2022-08-19T17:01:15.557Z,100176.29
2022-08-19T17:03:47.703Z,100176.26
2022-08-19T17:06:20.817Z,100180.14
2022-08-19T17:08:53.066Z,100179.86
2022-08-19T17:11:24.544Z,100186.66
2022-08-19T17:13:55.733Z,100189.76
2022-08-19T17:16:27.357Z,100191.23
2022-08-19T17:18:59.176Z,100192.29
2022-08-19T17:21:32.187Z,100194.42
2022-08-19T17:24:03.633Z,100199.91
2022-08-19T17:26:36.298Z,100200.71
2022-08-19T17:29:09.565Z,100202.77
2022-08-19T17:31:40.306Z,100209.02
2022-08-19T17:34:11.032Z,100212.73
2022-08-19T17:36:42.120Z,100213.87
2022-08-19T17:39:12.845Z,100215.10
2022-08-19T17:41:44.260Z,100216.44
2022-08-19T17:44:15.116Z,100218.64
2022-08-19T17:46:46.823Z,100221.55
2022-08-19T17:49:20.027Z,100229.10
2022-08-19T17:51:52.566Z,100230.08
2022-08-19T17:54:23.397Z,100239.95
2022-08-19T17:57:03.401Z,100242.91
2022-08-19T17:59:34.184Z,100248.09
2022-08-19T18:02:06.457Z,100247.73
2022-08-19T18:04:37.236Z,100251.47
2022-08-19T18:07:10.285Z,100258.70
2022-08-19T18:09:49.566Z,100264.82
2022-08-19T18:12:24.645Z,100268.79
2022-08-19T18:14:55.470Z,100272.52
2022-08-19T18:17:28.857Z,100278.80
2022-08-19T18:19:59.751Z,100282.69
2022-08-19T18:22:31.501Z,100284.90
2022-08-19T18:25:03.082Z,100289.59
2022-08-19T18:27:33.925Z,100290.81
2022-08-19T18:30:05.232Z,100291.45
2022-08-19T18:32:38.270Z,100288.64
2022-08-19T18:35:11.622Z,100291.71
2022-08-19T18:37:45.367Z,100291.12
2022-08-19T18:40:35.178Z,100297.67
2022-08-19T18:43:20.101Z,100297.55
2022-08-19T18:46:08.242Z,100302.30
2022-08-19T18:48:56.731Z,100297.77
2022-08-19T18:51:30.003Z,100300.38
2022-08-19T18:54:01.547Z,100303.77
2022-08-19T18:56:33.528Z,100309.37
2022-08-19T18:59:04.640Z,100311.27
2022-08-19T19:01:36.898Z,100310.51
2022-08-19T19:04:10.700Z,100308.80
2022-08-19T19:06:45.392Z,100309.30
2022-08-19T19:09:17.463Z,100307.88
2022-08-19T19:11:50.213Z,100307.11
2022-08-19T19:14:47.589Z,100308.29
2022-08-19T19:17:15.537Z,100305.13
2022-08-19T19:19:46.422Z,100305.73
2022-08-19T19:22:19.004Z,100303.09
2022-08-19T19:24:50.862Z,100302.05
2022-08-19T19:27:22.071Z,100301.59
2022-08-19T19:29:53.443Z,100303.64
2022-08-19T19:32:27.077Z,100303.09
2022-08-19T19:34:57.955Z,100307.65
2022-08-19T19:37:28.718Z,100305.23
2022-08-19T19:39:59.590Z,100307.27
2022-08-19T19:42:30.394Z,100307.33
2022-08-19T19:45:01.625Z,100305.84
2022-08-19T19:47:33.605Z,100306.33
2022-08-19T19:50:14.212Z,100305.77
2022-08-19T19:52:47.060Z,100307.32
2022-08-19T19:55:19.116Z,100308.96
2022-08-19T19:57:49.982Z,100314.40
2022-08-19T20:00:20.979Z,100317.02
2022-08-19T20:02:52.853Z,100319.05
2022-08-19T20:05:24.025Z,100320.00
2022-08-19T20:08:12.875Z,100324.58
2022-08-19T20:10:44.280Z,100328.98
2022-08-19T20:13:15.752Z,100329.02
2022-08-19T20:15:46.766Z,100325.73
2022-08-19T20:18:17.453Z,100325.30
2022-08-19T20:20:50.307Z,100330.70
2022-08-19T20:23:21.724Z,100330.80
2022-08-19T20:25:52.590Z,100332.57
2022-08-19T20:28:25.072Z,100331.55
2022-08-19T20:30:56.715Z,100329.45
2022-08-19T20:33:33.772Z,100328.84
2022-08-19T20:36:05.473Z,100331.13
2022-08-19T20:38:39.399Z,100334.66
2022-08-19T20:41:12.888Z,100330.02
2022-08-19T20:43:43.926Z,100329.61
2022-08-19T20:46:15.199Z,100334.77
2022-08-19T20:48:47.488Z,100333.05
2022-08-19T20:51:18.572Z,100332.83
2022-08-19T20:53:49.246Z,100334.00
2022-08-19T20:56:23.087Z,100328.73
2022-08-19T20:58:59.305Z,100329.85
2022-08-19T21:01:33.390Z,100332.73
2022-08-19T21:04:04.435Z,100333.95
2022-08-19T21:06:35.215Z,100335.27
2022-08-19T21:09:07.355Z,100339.67
2022-08-19T21:11:38.141Z,100340.13
2022-08-19T21:14:08.963Z,100340.83
2022-08-19T21:16:42.143Z,100341.42
2022-08-19T21:19:13.090Z,100339.61
2022-08-19T21:21:44.840Z,100337.52
2022-08-19T21:24:15.639Z,100339.95
2022-08-19T21:26:51.103Z,100336.13
2022-08-19T21:29:22.232Z,100336.97
2022-08-19T21:31:58.167Z,100339.32
2022-08-19T21:34:28.927Z,100341.95
2022-08-19T21:36:59.791Z,100337.79
2022-08-19T21:39:31.117Z,100342.52
2022-08-19T21:42:04.281Z,100338.65
2022-08-19T21:44:35.120Z,100333.92
2022-08-19T21:47:20.395Z,100339.94
2022-08-19T21:49:51.079Z,100338.50
2022-08-19T21:52:26.090Z,100336.39
2022-08-19T21:54:57.376Z,100337.14
2022-08-19T21:57:31.124Z,100335.31
2022-08-19T22:00:01.831Z,100333.60
2022-08-19T22:02:32.619Z,100330.42
2022-08-19T22:05:05.103Z,100327.55
2022-08-19T22:07:38.683Z,100326.50
2022-08-19T22:10:12.237Z,100325.61
2022-08-19T22:12:48.793Z,100323.23
2022-08-19T22:15:22.545Z,100319.14
2022-08-19T22:17:57.613Z,100317.69
2022-08-19T22:20:29.639Z,100315.01
2022-08-19T22:23:04.379Z,100314.84
2022-08-19T22:25:35.936Z,100315.93
2022-08-19T22:28:10.899Z,100317.90
2022-08-19T22:30:45.400Z,100323.90
2022-08-19T22:33:20.143Z,100325.51
2022-08-19T22:35:51.015Z,100327.55
2022-08-19T22:38:24.205Z,100326.87
2022-08-19T22:40:56.642Z,100326.48
2022-08-19T22:43:30.258Z,100325.89
2022-08-19T22:46:01.195Z,100321.93
2022-08-19T22:48:32.748Z,100322.15
2022-08-19T22:51:22.301Z,100320.58
2022-08-19T22:53:55.226Z,100320.42
2022-08-19T22:56:27.409Z,100314.81
2022-08-19T22:59:01.086Z,100313.27
2022-08-19T23:01:41.517Z,100311.66
2022-08-19T23:04:14.838Z,100310.83
2022-08-19T23:06:46.763Z,100309.59
2022-08-19T23:09:18.520Z,100309.20
2022-08-19T23:11:55.320Z,100308.14
2022-08-19T23:14:26.084Z,100306.00
2022-08-19T23:16:59.696Z,100308.91
2022-08-19T23:19:32.667Z,100308.79
2022-08-19T23:22:05.303Z,100312.15
2022-08-19T23:24:36.294Z,100304.33
2022-08-19T23:27:25.260Z,100299.83
2022-08-19T23:30:13.705Z,100298.10
2022-08-19T23:32:46.083Z,100294.74
2022-08-19T23:35:16.994Z,100297.59
2022-08-19T23:37:48.162Z,100297.92
2022-08-19T23:40:22.045Z,100299.42
2022-08-19T23:42:52.901Z,100300.03
2022-08-19T23:45:24.764Z,100300.27
2022-08-19T23:47:58.915Z,100304.13
2022-08-19T23:50:29.791Z,100302.09
2022-08-19T23:53:02.121Z,100300.92
2022-08-19T23:55:42.891Z,100302.67
2022-08-19T23:58:15.099Z,100301.45
